sensor_id;sensor_type;location;lat;lon;timestamp;P1;durP1;ratioP1;P2;durP2;ratioP2
53939;SDS011;39850;43.324;21.916;2023-03-05T00:03:38;72.0;;;54.0;;
53939;SDS011;39850;43.324;21.916;2023-03-05T00:08:15;72.0;;;54.0;;
53939;SDS011;39850;43.324;21.916;2023-03-05T00:12:52;72.0;;;54.0;;
53939;SDS011;39850;43.324;21.916;2023-03-05T00:50:10;64.0;;;51.0;;
53939;SDS011;39850;43.324;21.916;2023-03-05T00:54:47;64.0;;;51.0;;
53939;SDS011;39850;43.324;21.916;2023-03-05T00:59:24;64.0;;;51.0;;
53939;SDS011;39850;43.324;21.916;2023-03-05T01:04:01;64.0;;;51.0;;
53939;SDS011;39850;43.324;21.916;2023-03-05T01:08:39;62.0;;;50.0;;
53939;SDS011;39850;43.324;21.916;2023-03-05T01:13:16;62.0;;;50.0;;
53939;SDS011;39850;43.324;21.916;2023-03-05T01:17:54;61.0;;;50.0;;
53939;SDS011;39850;43.324;21.916;2023-03-05T01:22:32;61.0;;;50.0;;
53939;SDS011;39850;43.324;21.916;2023-03-05T01:27:09;61.0;;;50.0;;
53939;SDS011;39850;43.324;21.916;2023-03-05T01:31:46;61.0;;;50.0;;
53939;SDS011;39850;43.324;21.916;2023-03-05T02:28:47;63.0;;;49.0;;
53939;SDS011;39850;43.324;21.916;2023-03-05T02:33:28;63.0;;;49.0;;
53939;SDS011;39850;43.324;21.916;2023-03-05T02:38:05;63.0;;;49.0;;
53939;SDS011;39850;43.324;21.916;2023-03-05T02:42:44;63.0;;;49.0;;
53939;SDS011;39850;43.324;21.916;2023-03-05T02:47:21;63.0;;;49.0;;
53939;SDS011;39850;43.324;21.916;2023-03-05T02:51:58;63.0;;;49.0;;
53939;SDS011;39850;43.324;21.916;2023-03-05T03:28:58;68.0;;;52.0;;
53939;SDS011;39850;43.324;21.916;2023-03-05T03:33:35;68.0;;;52.0;;
53939;SDS011;39850;43.324;21.916;2023-03-05T03:38:13;68.0;;;52.0;;
53939;SDS011;39850;43.324;21.916;2023-03-05T03:42:51;68.0;;;52.0;;
53939;SDS011;39850;43.324;21.916;2023-03-05T03:47:30;68.0;;;52.0;;
53939;SDS011;39850;43.324;21.916;2023-03-05T03:52:08;68.0;;;52.0;;
53939;SDS011;39850;43.324;21.916;2023-03-05T03:56:47;69.0;;;53.0;;
53939;SDS011;39850;43.324;21.916;2023-03-05T04:01:24;69.0;;;53.0;;
53939;SDS011;39850;43.324;21.916;2023-03-05T04:06:00;69.0;;;53.0;;
53939;SDS011;39850;43.324;21.916;2023-03-05T04:10:38;69.0;;;53.0;;
53939;SDS011;39850;43.324;21.916;2023-03-05T04:15:15;69.0;;;53.0;;
53939;SDS011;39850;43.324;21.916;2023-03-05T04:47:31;121.0;;;80.0;;
53939;SDS011;39850;43.324;21.916;2023-03-05T04:52:14;121.0;;;80.0;;
53939;SDS011;39850;43.324;21.916;2023-03-05T04:56:51;121.0;;;80.0;;
53939;SDS011;39850;43.324;21.916;2023-03-05T05:01:27;121.0;;;80.0;;
53939;SDS011;39850;43.324;21.916;2023-03-05T05:06:06;121.0;;;80.0;;
53939;SDS011;39850;43.324;21.916;2023-03-05T05:10:43;106.0;;;72.0;;
53939;SDS011;39850;43.324;21.916;2023-03-05T05:15:21;106.0;;;72.0;;
53939;SDS011;39850;43.324;21.916;2023-03-05T05:19:59;90.0;;;63.0;;
53939;SDS011;39850;43.324;21.916;2023-03-05T05:24:36;90.0;;;63.0;;
53939;SDS011;39850;43.324;21.916;2023-03-05T05:29:12;90.0;;;63.0;;
53939;SDS011;39850;43.324;21.916;2023-03-05T05:33:49;90.0;;;63.0;;
53939;SDS011;39850;43.324;21.916;2023-03-05T06:29:33;63.0;;;47.0;;
53939;SDS011;39850;43.324;21.916;2023-03-05T06:34:11;63.0;;;47.0;;
53939;SDS011;39850;43.324;21.916;2023-03-05T06:38:53;63.0;;;47.0;;
53939;SDS011;39850;43.324;21.916;2023-03-05T06:43:31;63.0;;;47.0;;
53939;SDS011;39850;43.324;21.916;2023-03-05T06:48:08;63.0;;;47.0;;
53939;SDS011;39850;43.324;21.916;2023-03-05T06:52:49;63.0;;;47.0;;
53939;SDS011;39850;43.324;21.916;2023-03-05T08:48:33;41.0;;;33.0;;
53939;SDS011;39850;43.324;21.916;2023-03-05T08:53:11;41.0;;;33.0;;
53939;SDS011;39850;43.324;21.916;2023-03-05T08:57:47;41.0;;;33.0;;
53939;SDS011;39850;43.324;21.916;2023-03-05T09:02:24;41.0;;;33.0;;
53939;SDS011;39850;43.324;21.916;2023-03-05T09:07:01;41.0;;;33.0;;
53939;SDS011;39850;43.324;21.916;2023-03-05T09:11:38;41.0;;;33.0;;
53939;SDS011;39850;43.324;21.916;2023-03-05T09:16:20;41.0;;;33.0;;
53939;SDS011;39850;43.324;21.916;2023-03-05T10:31:07;27.0;;;24.0;;
53939;SDS011;39850;43.324;21.916;2023-03-05T10:36:49;27.0;;;24.0;;
53939;SDS011;39850;43.324;21.916;2023-03-05T10:42:03;27.0;;;24.0;;
53939;SDS011;39850;43.324;21.916;2023-03-05T10:47:14;27.0;;;24.0;;
53939;SDS011;39850;43.324;21.916;2023-03-05T10:52:17;27.0;;;24.0;;
53939;SDS011;39850;43.324;21.916;2023-03-05T10:57:20;27.0;;;24.0;;
53939;SDS011;39850;43.324;21.916;2023-03-05T11:41:11;27.0;;;24.0;;
53939;SDS011;39850;43.324;21.916;2023-03-05T11:46:03;27.0;;;24.0;;
53939;SDS011;39850;43.324;21.916;2023-03-05T11:50:57;26.0;;;23.0;;
53939;SDS011;39850;43.324;21.916;2023-03-05T11:55:51;26.0;;;23.0;;
53939;SDS011;39850;43.324;21.916;2023-03-05T12:00:47;26.0;;;23.0;;
53939;SDS011;39850;43.324;21.916;2023-03-05T12:05:28;26.0;;;23.0;;
53939;SDS011;39850;43.324;21.916;2023-03-05T12:10:22;24.0;;;22.0;;
53939;SDS011;39850;43.324;21.916;2023-03-05T12:16:04;24.0;;;22.0;;
53939;SDS011;39850;43.324;21.916;2023-03-05T13:01:31;20.0;;;18.0;;
53939;SDS011;39850;43.324;21.916;2023-03-05T13:06:33;20.0;;;18.0;;
53939;SDS011;39850;43.324;21.916;2023-03-05T13:11:22;22.0;;;19.0;;
53939;SDS011;39850;43.324;21.916;2023-03-05T13:16:05;22.0;;;19.0;;
53939;SDS011;39850;43.324;21.916;2023-03-05T13:21:12;22.0;;;19.0;;
53939;SDS011;39850;43.324;21.916;2023-03-05T13:26:15;22.0;;;19.0;;
53939;SDS011;39850;43.324;21.916;2023-03-05T13:31:13;23.0;;;20.0;;
53939;SDS011;39850;43.324;21.916;2023-03-05T13:35:52;23.0;;;20.0;;
53939;SDS011;39850;43.324;21.916;2023-03-05T14:19:38;18.0;;;17.0;;
53939;SDS011;39850;43.324;21.916;2023-03-05T14:24:26;18.0;;;17.0;;
53939;SDS011;39850;43.324;21.916;2023-03-05T14:29:24;18.0;;;17.0;;
53939;SDS011;39850;43.324;21.916;2023-03-05T14:34:21;18.0;;;17.0;;
53939;SDS011;39850;43.324;21.916;2023-03-05T14:39:01;18.0;;;17.0;;
53939;SDS011;39850;43.324;21.916;2023-03-05T14:43:38;18.0;;;17.0;;
53939;SDS011;39850;43.324;21.916;2023-03-05T14:48:19;18.0;;;17.0;;
53939;SDS011;39850;43.324;21.916;2023-03-05T14:53:19;18.0;;;17.0;;
53939;SDS011;39850;43.324;21.916;2023-03-05T14:58:18;18.0;;;17.0;;
53939;SDS011;39850;43.324;21.916;2023-03-05T15:49:22;22.0;;;20.0;;
53939;SDS011;39850;43.324;21.916;2023-03-05T15:53:58;22.0;;;20.0;;
53939;SDS011;39850;43.324;21.916;2023-03-05T15:58:35;22.0;;;20.0;;
53939;SDS011;39850;43.324;21.916;2023-03-05T16:03:12;22.0;;;20.0;;
53939;SDS011;39850;43.324;21.916;2023-03-05T16:07:53;22.0;;;20.0;;
53939;SDS011;39850;43.324;21.916;2023-03-05T16:12:40;22.0;;;20.0;;
53939;SDS011;39850;43.324;21.916;2023-03-05T16:17:23;22.0;;;20.0;;
53939;SDS011;39850;43.324;21.916;2023-03-05T19:33:05;249.0;;;175.0;;
53939;SDS011;39850;43.324;21.916;2023-03-05T19:37:42;249.0;;;175.0;;
53939;SDS011;39850;43.324;21.916;2023-03-05T19:42:20;216.0;;;154.0;;
53939;SDS011;39850;43.324;21.916;2023-03-05T19:46:57;216.0;;;154.0;;
53939;SDS011;39850;43.324;21.916;2023-03-05T19:51:35;216.0;;;154.0;;
53939;SDS011;39850;43.324;21.916;2023-03-05T19:56:18;216.0;;;154.0;;
53939;SDS011;39850;43.324;21.916;2023-03-05T20:00:55;183.0;;;133.0;;
53939;SDS011;39850;43.324;21.916;2023-03-05T20:05:32;183.0;;;133.0;;
53939;SDS011;39850;43.324;21.916;2023-03-05T20:52:19;52.0;;;44.0;;
53939;SDS011;39850;43.324;21.916;2023-03-05T20:56:56;52.0;;;44.0;;
53939;SDS011;39850;43.324;21.916;2023-03-05T21:01:39;58.0;;;48.0;;
53939;SDS011;39850;43.324;21.916;2023-03-05T21:06:16;58.0;;;48.0;;
53939;SDS011;39850;43.324;21.916;2023-03-05T21:10:52;64.0;;;53.0;;
53939;SDS011;39850;43.324;21.916;2023-03-05T21:15:31;64.0;;;53.0;;
53939;SDS011;39850;43.324;21.916;2023-03-05T21:20:20;74.0;;;60.0;;
53939;SDS011;39850;43.324;21.916;2023-03-05T21:25:11;74.0;;;60.0;;
53939;SDS011;39850;43.324;21.916;2023-03-05T21:29:49;74.0;;;60.0;;
53939;SDS011;39850;43.324;21.916;2023-03-05T21:34:26;85.0;;;66.0;;
53939;SDS011;39850;43.324;21.916;2023-03-05T21:39:03;85.0;;;66.0;;
53939;SDS011;39850;43.324;21.916;2023-03-05T22:11:33;96.0;;;70.0;;
53939;SDS011;39850;43.324;21.916;2023-03-05T22:16:22;96.0;;;70.0;;
53939;SDS011;39850;43.324;21.916;2023-03-05T22:21:04;85.0;;;64.0;;
53939;SDS011;39850;43.324;21.916;2023-03-05T22:25:44;85.0;;;64.0;;
53939;SDS011;39850;43.324;21.916;2023-03-05T22:30:22;85.0;;;64.0;;
53939;SDS011;39850;43.324;21.916;2023-03-05T22:35:01;74.0;;;58.0;;
53939;SDS011;39850;43.324;21.916;2023-03-05T22:39:41;74.0;;;58.0;;
53939;SDS011;39850;43.324;21.916;2023-03-05T22:44:18;70.0;;;56.0;;
53939;SDS011;39850;43.324;21.916;2023-03-05T22:48:54;70.0;;;56.0;;
53939;SDS011;39850;43.324;21.916;2023-03-05T22:53:32;65.0;;;53.0;;
53939;SDS011;39850;43.324;21.916;2023-03-05T22:58:10;65.0;;;53.0;;
53939;SDS011;39850;43.324;21.916;2023-03-05T23:44:47;49.0;;;42.0;;
53939;SDS011;39850;43.324;21.916;2023-03-05T23:49:25;49.0;;;42.0;;
53939;SDS011;39850;43.324;21.916;2023-03-05T23:54:02;48.0;;;42.0;;
53939;SDS011;39850;43.324;21.916;2023-03-05T23:58:39;48.0;;;42.0;;
